Time;durP1;ratioP1;P1;durP2;ratioP2;P2;SDS_P1;SDS_P2;PMS_P1;PMS_P2;Temp;Humidity;BMP_temperature;BMP_pressure;BME280_temperature;BME280_humidity;BME280_pressure;Samples;Min_cycle;Max_cycle;Signal;HPM_P1;HPM_P2
2023/09/12 00:00:34;;;;;;;15.10;8.60;;;;;;;19.88;93.57;97794.22;4198830;28;21175;-93
2023/09/12 00:02:38;;;;;;;11.53;9.57;;;;;;;19.85;93.29;97792.69;4181907;28;20621;-93
2023/09/12 00:04:41;;;;;;;13.33;9.50;;;;;;;19.86;93.48;97793.56;4181775;28;20692;-93
2023/09/12 00:06:44;;;;;;;11.33;9.67;;;;;;;19.86;94.73;97796.22;4181708;28;21082;-93
2023/09/12 00:08:49;;;;;;;13.00;10.10;;;;;;;19.81;94.71;97795.03;4181635;28;20633;-93
2023/09/12 00:11:03;;;;;;;13.57;9.80;;;;;;;19.81;93.59;97790.56;4197861;28;20625;-93
2023/09/12 00:13:06;;;;;;;18.13;10.10;;;;;;;19.80;94.04;97788.94;4182117;28;20621;-93
2023/09/12 00:15:08;;;;;;;16.87;10.13;;;;;;;19.78;93.22;97780.31;4181432;28;21196;-94
2023/09/12 00:17:12;;;;;;;11.80;10.10;;;;;;;19.79;93.62;97778.50;4181455;28;20723;-93
2023/09/12 00:19:15;;;;;;;15.03;9.57;;;;;;;19.78;93.25;97782.13;4181646;28;20679;-93
2023/09/12 00:21:18;;;;;;;14.80;9.73;;;;;;;19.78;93.15;97777.66;4181462;28;20621;-93
2023/09/12 00:23:23;;;;;;;11.27;9.70;;;;;;;19.76;94.08;97771.72;4181553;28;20721;-93
2023/09/12 00:25:26;;;;;;;11.70;9.77;;;;;;;19.74;94.33;97781.66;4181360;28;20614;-93
2023/09/12 00:27:30;;;;;;;10.30;9.30;;;;;;;19.70;93.76;97771.56;4181660;28;20653;-93
2023/09/12 00:29:33;;;;;;;17.83;10.37;;;;;;;19.69;94.56;97769.91;4198311;28;20628;-93
2023/09/12 00:31:36;;;;;;;16.83;10.03;;;;;;;19.65;94.63;97771.22;4181232;28;20624;-93
2023/09/12 00:33:39;;;;;;;14.70;9.17;;;;;;;19.59;93.64;97764.81;4197925;28;20600;-93
2023/09/12 00:35:43;;;;;;;14.80;9.40;;;;;;;19.56;94.03;97765.16;4181371;28;20628;-93
2023/09/12 00:37:46;;;;;;;16.13;9.53;;;;;;;19.55;94.84;97768.78;4181374;28;20620;-93
2023/09/12 00:39:50;;;;;;;14.90;9.30;;;;;;;19.53;94.12;97768.13;4181092;28;20676;-93
2023/09/12 00:41:55;;;;;;;13.20;9.67;;;;;;;19.51;94.04;97762.16;4181111;28;20671;-93
2023/09/12 00:43:58;;;;;;;17.73;10.37;;;;;;;19.50;94.28;97763.16;4180978;28;20647;-93
2023/09/12 00:46:02;;;;;;;12.13;9.57;;;;;;;19.47;94.29;97767.97;4197713;28;20613;-93
2023/09/12 00:48:06;;;;;;;11.20;9.10;;;;;;;19.44;93.53;97763.03;4181132;28;21042;-93
2023/09/12 00:50:10;;;;;;;14.33;9.20;;;;;;;19.46;94.18;97767.13;4181058;28;20716;-93
2023/09/12 00:52:14;;;;;;;14.13;9.50;;;;;;;19.45;93.78;97764.66;4181197;28;20667;-93
2023/09/12 00:54:17;;;;;;;14.00;10.80;;;;;;;19.40;94.62;97767.78;4181522;28;20621;-93
2023/09/12 00:56:21;;;;;;;13.07;9.53;;;;;;;19.38;94.44;97768.97;4181740;28;20720;-93
2023/09/12 00:58:26;;;;;;;13.00;9.33;;;;;;;19.35;94.17;97765.81;4181096;28;21163;-96
2023/09/12 01:00:29;;;;;;;12.50;8.83;;;;;;;19.35;93.96;97765.81;4181005;28;21169;-93
2023/09/12 01:02:33;;;;;;;13.57;9.50;;;;;;;19.33;94.38;97758.03;4214352;28;20703;-93
2023/09/12 01:04:37;;;;;;;13.73;9.67;;;;;;;19.32;94.60;97764.34;4197875;28;20736;-92
2023/09/12 01:06:41;;;;;;;16.33;10.00;;;;;;;19.29;94.49;97761.19;4181657;28;20644;-93
2023/09/12 01:08:44;;;;;;;14.03;9.60;;;;;;;19.27;94.76;97761.34;4181619;28;20656;-94
2023/09/12 01:10:49;;;;;;;15.67;9.73;;;;;;;19.28;93.47;97764.84;4197505;28;20604;-93
2023/09/12 01:12:52;;;;;;;11.63;9.87;;;;;;;19.24;94.99;97769.63;4181001;28;21180;-93
2023/09/12 01:14:56;;;;;;;13.60;9.93;;;;;;;19.22;94.43;97782.19;4181167;28;20696;-93
2023/09/12 01:17:00;;;;;;;14.13;10.07;;;;;;;19.22;94.13;97773.44;4197505;28;21164;-92
2023/09/12 01:19:04;;;;;;;11.73;10.53;;;;;;;19.23;94.35;97777.72;4197377;28;20659;-93
2023/09/12 01:21:39;;;;;;;15.50;10.23;;;;;;;19.20;94.69;97778.06;4197512;28;20728;-93
2023/09/12 01:23:50;;;;;;;15.63;10.30;;;;;;;19.18;95.28;97780.03;4148607;28;20624;-93
2023/09/12 01:26:03;;;;;;;13.00;9.70;;;;;;;19.15;94.85;97777.72;4181364;28;20612;-94
2023/09/12 01:28:10;;;;;;;14.73;9.70;;;;;;;19.14;93.86;97784.00;4181099;28;20656;-94
2023/09/12 01:30:13;;;;;;;15.63;9.40;;;;;;;19.08;93.87;97779.41;4197998;28;20623;-93
2023/09/12 01:32:19;;;;;;;14.40;10.13;;;;;;;19.06;95.19;97778.72;4181033;28;20617;-93
2023/09/12 01:34:22;;;;;;;14.00;10.90;;;;;;;19.03;95.10;97777.25;4181048;28;20716;-94
2023/09/12 01:36:25;;;;;;;14.03;10.20;;;;;;;19.05;95.15;97771.78;4180976;28;20658;-93
2023/09/12 01:38:29;;;;;;;12.90;10.03;;;;;;;19.03;93.94;97773.75;4181042;28;21231;-95
2023/09/12 01:40:38;;;;;;;18.90;10.10;;;;;;;18.99;93.64;97775.88;4180684;28;21178;-95
2023/09/12 01:42:45;;;;;;;15.30;10.07;;;;;;;18.94;94.12;97770.25;4214244;28;20634;-95
2023/09/12 01:44:52;;;;;;;15.73;9.47;;;;;;;18.88;94.18;97760.34;4214556;28;20608;-95
2023/09/12 01:46:55;;;;;;;11.10;9.53;;;;;;;18.83;94.16;97766.28;4214539;28;20627;-95
2023/09/12 01:48:58;;;;;;;11.90;9.53;;;;;;;18.79;94.51;97757.81;4180904;28;20660;-95
2023/09/12 01:51:03;;;;;;;12.40;10.03;;;;;;;18.77;94.57;97762.47;4180910;28;20678;-95
2023/09/12 01:53:06;;;;;;;15.70;9.83;;;;;;;18.79;94.69;97772.88;4216790;28;20631;-95
2023/09/12 01:55:10;;;;;;;15.70;9.40;;;;;;;18.76;95.27;97767.91;4183834;28;20716;-95
2023/09/12 01:57:13;;;;;;;12.40;10.10;;;;;;;18.76;95.18;97776.66;4188433;28;20632;-96
2023/09/12 01:59:17;;;;;;;11.63;9.70;;;;;;;18.79;94.82;97778.97;4186887;28;20639;-95
2023/09/12 02:15:07;;;;;;;16.33;10.57;;;;;;;18.99;93.24;97775.06;5110872;22;1267311;-88
2023/09/12 02:17:10;;;;;;;15.90;9.40;;;;;;;18.95;94.22;97787.75;5115964;23;20601;-88
2023/09/12 02:19:16;;;;;;;12.20;10.10;;;;;;;18.90;94.76;97770.75;5095148;23;20970;-88
2023/09/12 02:21:19;;;;;;;11.83;9.83;;;;;;;18.89;94.58;97783.13;5093403;23;20567;-88
2023/09/12 02:23:22;;;;;;;11.93;9.13;;;;;;;18.85;94.34;97783.59;5118866;23;20995;-89
2023/09/12 02:25:26;;;;;;;16.37;9.70;;;;;;;18.80;94.50;97772.72;5119229;23;20577;-88
2023/09/12 02:27:29;;;;;;;12.93;10.30;;;;;;;18.75;94.68;97771.53;5093105;23;20579;-88
2023/09/12 02:29:33;;;;;;;12.40;10.37;;;;;;;18.69;94.08;97761.63;5144128;23;20967;-88
2023/09/12 02:31:38;;;;;;;15.17;9.93;;;;;;;18.66;94.55;97769.88;5118983;23;20577;-88
2023/09/12 02:33:41;;;;;;;14.47;10.10;;;;;;;18.64;94.49;97764.78;5145982;23;20630;-88
2023/09/12 02:35:45;;;;;;;17.43;9.73;;;;;;;18.63;95.03;97760.47;5094881;23;20563;-89
2023/09/12 02:37:48;;;;;;;15.17;10.30;;;;;;;18.64;95.10;97769.19;5119953;23;20557;-88
2023/09/12 02:39:51;;;;;;;12.87;9.33;;;;;;;18.61;95.22;97759.81;5095274;23;20981;-88
2023/09/12 02:41:54;;;;;;;14.73;9.70;;;;;;;18.62;95.58;97765.91;5094250;23;21030;-88
2023/09/12 02:43:58;;;;;;;15.43;9.90;;;;;;;18.62;95.35;97760.63;5117627;23;20664;-87
2023/09/12 02:46:02;;;;;;;15.83;10.10;;;;;;;18.61;95.61;97757.16;5117820;23;20581;-88
2023/09/12 02:48:07;;;;;;;13.70;10.20;;;;;;;18.61;95.00;97762.44;5094464;23;21166;-88
2023/09/12 02:50:09;;;;;;;13.40;9.77;;;;;;;18.58;95.84;97757.50;5094142;23;20613;-88
2023/09/12 02:52:12;;;;;;;12.43;9.80;;;;;;;18.56;95.87;97755.97;5119423;23;21105;-88
2023/09/12 02:54:15;;;;;;;14.47;10.23;;;;;;;18.55;95.70;97754.31;5094153;23;20581;-88
2023/09/12 02:56:18;;;;;;;12.07;10.10;;;;;;;18.55;95.67;97759.59;5093713;23;21132;-89
2023/09/12 02:58:21;;;;;;;11.53;10.33;;;;;;;18.59;95.18;97755.66;5093938;23;20593;-88
2023/09/12 03:00:24;;;;;;;16.50;11.30;;;;;;;18.57;95.66;97758.47;5119655;23;20990;-87
2023/09/12 03:02:29;;;;;;;13.87;10.80;;;;;;;18.56;95.45;97748.06;5095083;23;20594;-88
2023/09/12 03:04:35;;;;;;;16.70;10.40;;;;;;;18.55;96.02;97749.88;5108747;23;20676;-88
2023/09/12 03:06:39;;;;;;;12.87;9.73;;;;;;;18.53;95.09;97745.75;5070979;23;21449;-88
2023/09/12 03:08:42;;;;;;;15.83;11.03;;;;;;;18.47;95.16;97741.91;5096023;23;20592;-89
2023/09/12 03:10:45;;;;;;;14.57;10.37;;;;;;;18.45;95.73;97740.44;5122013;23;21190;-88
2023/09/12 03:12:47;;;;;;;16.30;11.40;;;;;;;18.44;95.29;97744.88;5121869;23;20731;-89
2023/09/12 03:14:51;;;;;;;16.30;11.70;;;;;;;18.44;95.14;97736.13;5068424;23;20591;-87
2023/09/12 03:16:54;;;;;;;13.60;10.00;;;;;;;18.42;95.73;97736.31;5090275;23;20601;-88
2023/09/12 03:18:57;;;;;;;13.13;10.40;;;;;;;18.43;95.70;97740.59;5089478;23;20583;-88
2023/09/12 03:21:03;;;;;;;16.20;10.63;;;;;;;18.45;95.01;97741.25;5065283;23;20631;-87
2023/09/12 03:23:06;;;;;;;12.70;9.50;;;;;;;18.40;95.77;97740.09;5066160;23;20678;-88
2023/09/12 03:25:09;;;;;;;13.10;10.30;;;;;;;18.40;95.83;97739.25;5089994;23;20618;-87
2023/09/12 03:27:12;;;;;;;11.93;9.93;;;;;;;18.37;95.71;97735.13;5090045;23;20630;-88
2023/09/12 03:29:15;;;;;;;12.83;10.13;;;;;;;18.34;95.77;97729.34;5065474;23;20589;-88
2023/09/12 03:31:19;;;;;;;14.73;10.87;;;;;;;18.34;95.54;97734.63;5089528;23;20571;-88
2023/09/12 03:33:22;;;;;;;15.60;10.43;;;;;;;18.29;95.44;97737.75;5065516;23;20579;-88
2023/09/12 03:35:25;;;;;;;14.20;10.73;;;;;;;18.28;96.29;97730.84;5064458;23;20571;-88
2023/09/12 03:37:29;;;;;;;16.83;11.10;;;;;;;18.27;95.89;97741.56;5064145;23;20607;-88
2023/09/12 03:39:32;;;;;;;15.23;9.27;;;;;;;18.29;96.11;97736.94;5088529;23;20641;-88
2023/09/12 03:41:36;;;;;;;13.10;9.77;;;;;;;18.29;95.99;97743.03;5089246;23;20589;-88
2023/09/12 03:43:39;;;;;;;13.67;10.60;;;;;;;18.28;96.26;97745.81;5064874;23;20977;-87
2023/09/12 03:45:42;;;;;;;13.30;10.10;;;;;;;18.26;96.44;97745.16;5063427;23;20584;-89
2023/09/12 03:47:46;;;;;;;14.80;9.47;;;;;;;18.25;95.57;97746.16;5088900;23;20587;-87
2023/09/12 03:49:52;;;;;;;12.83;10.27;;;;;;;18.23;96.54;97756.06;5065523;23;20572;-88
2023/09/12 03:51:55;;;;;;;13.60;10.20;;;;;;;18.24;96.31;97757.72;5064783;23;20594;-87
2023/09/12 03:53:59;;;;;;;12.97;10.20;;;;;;;18.23;95.65;97748.94;5088597;23;20570;-88
2023/09/12 03:56:02;;;;;;;15.00;9.87;;;;;;;18.20;96.07;97748.44;5064233;23;20688;-88
2023/09/12 03:58:06;;;;;;;12.70;9.77;;;;;;;18.20;96.02;97745.81;5088981;23;20581;-88
2023/09/12 04:00:09;;;;;;;15.50;10.90;;;;;;;18.18;95.50;97753.88;5064418;23;20583;-88
2023/09/12 04:02:22;;;;;;;16.00;10.67;;;;;;;18.18;96.03;97745.16;5065033;23;20656;-88
2023/09/12 04:04:25;;;;;;;13.50;10.80;;;;;;;18.19;95.92;97755.56;5088122;23;20976;-88
2023/09/12 04:06:29;;;;;;;16.30;11.00;;;;;;;18.19;96.35;97760.00;5064247;23;20580;-89
2023/09/12 04:08:32;;;;;;;18.93;9.90;;;;;;;18.18;96.20;97756.53;5063735;23;20636;-88
2023/09/12 04:10:36;;;;;;;15.00;10.80;;;;;;;18.17;96.16;97749.59;5063768;23;20576;-88
2023/09/12 04:12:40;;;;;;;14.57;10.90;;;;;;;18.14;96.00;97751.72;5089143;23;20578;-88
2023/09/12 04:14:43;;;;;;;12.40;10.27;;;;;;;18.13;95.79;97755.34;5064831;23;20699;-88
2023/09/12 04:16:45;;;;;;;17.60;12.93;;;;;;;18.09;95.94;97748.72;5064563;23;20578;-88
2023/09/12 04:18:49;;;;;;;16.83;11.37;;;;;;;18.07;96.47;97748.88;5065388;23;20998;-88
2023/09/12 04:20:52;;;;;;;15.43;10.20;;;;;;;18.05;96.01;97755.28;5089793;23;20585;-88
2023/09/12 04:22:55;;;;;;;14.70;11.27;;;;;;;18.03;96.14;97757.25;5064717;23;20580;-87
2023/09/12 04:24:58;;;;;;;15.83;11.00;;;;;;;18.01;95.83;97748.66;5064830;23;20608;-88
2023/09/12 04:27:04;;;;;;;14.77;11.33;;;;;;;18.00;96.27;97758.41;5064157;23;20594;-88
2023/09/12 04:29:08;;;;;;;15.00;10.50;;;;;;;18.01;96.62;97753.94;5064739;23;20677;-88
2023/09/12 04:31:12;;;;;;;16.00;11.00;;;;;;;18.03;96.46;97752.81;5088623;23;20582;-87
2023/09/12 04:33:15;;;;;;;14.83;11.60;;;;;;;18.05;96.11;97752.66;5089526;23;20638;-88
2023/09/12 04:35:19;;;;;;;16.80;10.30;;;;;;;18.07;97.06;97762.06;5089320;23;20601;-87
2023/09/12 04:37:22;;;;;;;18.67;11.50;;;;;;;18.08;97.01;97760.25;5064875;23;20586;-87
2023/09/12 04:39:25;;;;;;;14.37;11.10;;;;;;;18.09;96.65;97751.34;5089053;23;20581;-88
2023/09/12 04:41:28;;;;;;;14.77;10.80;;;;;;;18.10;96.99;97753.84;5064988;23;20575;-87
2023/09/12 04:43:33;;;;;;;17.20;11.10;;;;;;;18.12;96.91;97745.75;5088398;23;20611;-87
2023/09/12 04:45:36;;;;;;;12.40;10.67;;;;;;;18.11;96.89;97746.72;5088280;23;20610;-88
2023/09/12 04:47:39;;;;;;;16.47;10.43;;;;;;;18.09;97.41;97740.78;5063806;23;20678;-88
2023/09/12 04:49:44;;;;;;;13.60;10.63;;;;;;;18.09;97.26;97746.06;5089062;23;20568;-89
2023/09/12 04:51:48;;;;;;;11.87;10.20;;;;;;;18.08;97.96;97741.78;5065010;23;20585;-86
2023/09/12 04:53:51;;;;;;;13.50;10.93;;;;;;;18.09;97.99;97746.91;5064982;23;20582;-85
2023/09/12 04:55:56;;;;;;;15.57;11.60;;;;;;;18.13;98.15;97742.16;5088083;23;20554;-85
2023/09/12 04:57:59;;;;;;;15.20;12.07;;;;;;;18.14;97.75;97739.34;5115150;23;20617;-85
2023/09/12 05:00:06;;;;;;;15.27;11.60;;;;;;;18.17;98.42;97741.66;5088286;23;20575;-86
2023/09/12 05:02:09;;;;;;;16.27;10.80;;;;;;;18.21;98.02;97743.00;5063603;23;21157;-85
2023/09/12 05:04:12;;;;;;;14.00;11.80;;;;;;;18.24;98.02;97745.34;5089174;23;20597;-86
2023/09/12 05:06:15;;;;;;;16.23;11.03;;;;;;;18.26;98.21;97751.28;5088300;23;20623;-86
2023/09/12 05:08:19;;;;;;;16.90;11.10;;;;;;;18.30;97.76;97751.81;5063945;23;21012;-86
2023/09/12 05:10:22;;;;;;;14.30;10.70;;;;;;;18.31;97.49;97746.34;5087853;23;20562;-86
2023/09/12 05:12:25;;;;;;;14.43;11.63;;;;;;;18.35;98.02;97752.94;5061844;23;20688;-85
2023/09/12 05:14:29;;;;;;;16.40;11.33;;;;;;;18.40;97.89;97760.41;5087156;23;21079;-85
2023/09/12 05:16:34;;;;;;;16.00;12.20;;;;;;;18.47;97.72;97762.22;5088525;23;20575;-86
2023/09/12 05:18:37;;;;;;;14.53;11.13;;;;;;;18.56;97.61;97762.09;5087287;23;20594;-85
2023/09/12 05:20:41;;;;;;;18.57;11.40;;;;;;;18.65;97.20;97765.59;5064279;23;20576;-86
2023/09/12 05:22:44;;;;;;;15.03;11.40;;;;;;;18.72;97.74;97769.22;5088275;23;20586;-86
2023/09/12 05:24:48;;;;;;;14.03;12.03;;;;;;;18.81;96.13;97765.59;5063242;23;21196;-85
2023/09/12 05:26:51;;;;;;;17.30;11.20;;;;;;;18.89;96.45;97761.16;5087734;23;21485;-85
2023/09/12 05:28:54;;;;;;;17.43;11.90;;;;;;;19.02;96.76;97764.19;5063152;23;20629;-86
2023/09/12 05:30:57;;;;;;;16.57;11.30;;;;;;;19.12;96.06;97770.94;5062019;23;20690;-85
2023/09/12 05:33:02;;;;;;;19.63;12.50;;;;;;;19.27;95.28;97771.94;5063561;23;20591;-86
2023/09/12 05:35:06;;;;;;;15.53;11.43;;;;;;;19.38;93.24;97771.63;5063850;23;21074;-85
2023/09/12 05:37:24;;;;;;;16.83;10.43;;;;;;;19.51;94.45;97779.84;5064078;23;20695;-86
2023/09/12 05:39:27;;;;;;;16.43;10.87;;;;;;;19.62;92.68;97774.22;5064566;23;21198;-86
2023/09/12 05:41:31;;;;;;;13.33;10.93;;;;;;;19.74;92.48;97779.00;5086232;23;20566;-86
2023/09/12 05:43:34;;;;;;;17.60;11.23;;;;;;;19.89;91.00;97785.25;5061835;23;20580;-86
2023/09/12 05:45:37;;;;;;;15.00;10.63;;;;;;;20.04;91.19;97781.78;5085623;23;20666;-86
2023/09/12 05:47:41;;;;;;;19.17;11.20;;;;;;;20.20;92.51;97783.53;5087351;23;21125;-85
2023/09/12 05:49:45;;;;;;;19.43;12.50;;;;;;;20.32;90.10;97782.97;5058722;23;20623;-86
2023/09/12 05:51:49;;;;;;;11.83;9.87;;;;;;;20.39;89.17;97787.41;5084669;23;20563;-86
2023/09/12 05:53:52;;;;;;;15.67;11.67;;;;;;;20.50;88.48;97789.69;5084354;23;20575;-86
2023/09/12 05:55:56;;;;;;;14.60;9.93;;;;;;;20.65;88.09;97782.66;5059561;23;20583;-86
2023/09/12 05:58:00;;;;;;;19.93;11.13;;;;;;;20.80;88.67;97788.06;5063247;23;20628;-85
2023/09/12 06:00:10;;;;;;;15.10;11.40;;;;;;;20.93;86.78;97786.50;5063788;23;20647;-86
2023/09/12 06:02:17;;;;;;;19.10;10.50;;;;;;;21.09;88.40;97803.09;5085840;23;20564;-85
2023/09/12 06:04:20;;;;;;;14.30;11.83;;;;;;;21.23;87.79;97799.72;5062843;23;20621;-85
2023/09/12 06:06:25;;;;;;;17.63;11.50;;;;;;;21.34;86.60;97794.78;5063420;23;20697;-86
2023/09/12 06:08:28;;;;;;;14.87;11.07;;;;;;;21.35;86.23;97803.59;5113846;23;20590;-86
2023/09/12 06:10:32;;;;;;;19.80;10.90;;;;;;;21.28;87.04;97795.50;5086398;23;20577;-87
2023/09/12 06:12:36;;;;;;;14.00;11.20;;;;;;;21.43;87.19;97795.56;5086576;23;20593;-87
2023/09/12 06:14:39;;;;;;;17.00;11.60;;;;;;;21.61;86.63;97788.94;5088200;23;20592;-86
2023/09/12 06:16:42;;;;;;;17.47;10.50;;;;;;;21.60;86.66;97792.59;5087563;23;21146;-86
2023/09/12 06:18:45;;;;;;;15.87;10.90;;;;;;;21.59;87.92;97798.94;5088908;23;20997;-86
2023/09/12 06:20:50;;;;;;;12.43;10.67;;;;;;;21.49;86.85;97795.69;5088750;23;20580;-87
2023/09/12 06:22:54;;;;;;;12.73;10.50;;;;;;;21.41;86.57;97797.56;5089109;23;20916;-86
2023/09/12 06:24:56;;;;;;;19.80;11.03;;;;;;;21.38;87.46;97803.25;5112809;23;20572;-86
2023/09/12 06:26:59;;;;;;;16.53;11.13;;;;;;;21.56;86.58;97811.72;5088331;23;20615;-89
2023/09/12 06:29:02;;;;;;;18.50;11.60;;;;;;;21.79;87.71;97814.16;5088659;23;20588;-90
2023/09/12 06:31:09;;;;;;;15.63;10.70;;;;;;;21.87;85.91;97805.28;5113760;23;20576;-90
2023/09/12 06:33:12;;;;;;;11.87;10.57;;;;;;;21.81;85.47;97808.66;5088151;23;20999;-89
2023/09/12 06:35:15;;;;;;;15.00;10.97;;;;;;;21.88;85.18;97805.09;5061737;23;20629;-89
2023/09/12 06:37:18;;;;;;;17.10;11.20;;;;;;;22.11;84.01;97808.50;5087104;23;20584;-89
2023/09/12 06:39:24;;;;;;;16.10;11.87;;;;;;;22.23;84.11;97806.28;5087797;23;20602;-89
2023/09/12 06:41:28;;;;;;;13.53;11.13;;;;;;;22.35;83.18;97806.44;5112106;23;20671;-90
2023/09/12 06:43:32;;;;;;;15.83;12.07;;;;;;;22.42;83.49;97796.72;5086992;23;20664;-89
2023/09/12 06:45:37;;;;;;;15.57;11.97;;;;;;;22.54;83.82;97808.53;5063361;23;21024;-90
2023/09/12 06:47:40;;;;;;;14.50;10.37;;;;;;;22.70;82.99;97805.66;5089127;23;20593;-90
2023/09/12 06:49:43;;;;;;;16.33;11.80;;;;;;;22.69;83.00;97806.69;5114377;23;20648;-88
2023/09/12 06:51:52;;;;;;;17.47;11.00;;;;;;;22.63;83.32;97806.59;5088666;23;20577;-88
2023/09/12 06:53:55;;;;;;;17.13;10.87;;;;;;;22.59;84.37;97808.81;5064563;23;20653;-90
2023/09/12 06:55:59;;;;;;;13.77;10.50;;;;;;;22.66;84.64;97815.03;5090631;23;20917;-89
2023/09/12 06:58:03;;;;;;;14.37;10.83;;;;;;;22.71;86.55;97817.94;5115515;23;21395;-87
2023/09/12 07:00:08;;;;;;;14.90;10.10;;;;;;;22.84;84.82;97818.94;5088859;23;20653;-88
2023/09/12 07:02:12;;;;;;;15.40;10.87;;;;;;;23.05;83.70;97824.34;5065591;23;21124;-88
2023/09/12 07:04:16;;;;;;;13.47;11.20;;;;;;;23.18;85.32;97827.13;5089983;23;20625;-89
2023/09/12 07:06:19;;;;;;;16.13;10.87;;;;;;;23.35;83.08;97818.72;5090133;23;20609;-88
2023/09/12 07:08:23;;;;;;;22.83;10.50;;;;;;;23.36;81.95;97831.03;5090378;23;21026;-88
2023/09/12 07:10:26;;;;;;;16.20;11.17;;;;;;;23.34;84.31;97825.03;5116862;23;20606;-88
2023/09/12 07:12:32;;;;;;;16.80;11.13;;;;;;;23.29;83.55;97824.78;5064123;23;20611;-88
2023/09/12 07:14:37;;;;;;;14.90;10.60;;;;;;;23.19;83.49;97834.91;5065710;23;20609;-89
2023/09/12 07:16:40;;;;;;;15.80;11.40;;;;;;;23.17;85.64;97836.13;5087613;23;20580;-90
2023/09/12 07:18:44;;;;;;;21.23;13.63;;;;;;;23.15;85.46;97837.31;5064053;23;21728;-90
2023/09/12 07:20:47;;;;;;;15.87;10.93;;;;;;;23.13;84.53;97834.84;5086800;23;20556;-90
2023/09/12 07:22:50;;;;;;;15.77;10.87;;;;;;;23.37;85.83;97834.50;5088272;23;20647;-89
2023/09/12 07:24:55;;;;;;;21.00;10.47;;;;;;;23.53;82.80;97837.72;5065688;23;20610;-90
2023/09/12 07:26:58;;;;;;;15.30;10.20;;;;;;;23.71;83.54;97840.81;5088053;23;20616;-89
2023/09/12 07:29:05;;;;;;;14.97;11.00;;;;;;;23.97;84.80;97841.00;5064753;23;20636;-90
2023/09/12 07:31:08;;;;;;;19.93;10.17;;;;;;;24.33;84.24;97838.00;5090175;23;20885;-89
2023/09/12 07:33:11;;;;;;;13.77;10.67;;;;;;;24.51;83.71;97851.66;5090210;23;20609;-90
2023/09/12 07:35:15;;;;;;;16.73;10.73;;;;;;;24.54;83.31;97845.13;5090005;23;20581;-90
2023/09/12 07:37:18;;;;;;;14.47;9.90;;;;;;;24.62;83.58;97853.75;5090027;23;21078;-90
2023/09/12 07:39:21;;;;;;;12.53;9.30;;;;;;;24.87;83.50;97850.41;5090539;23;20581;-90
2023/09/12 07:41:24;;;;;;;15.97;9.70;;;;;;;25.30;81.17;97855.31;5115364;23;20592;-90
2023/09/12 07:43:27;;;;;;;15.07;9.40;;;;;;;25.45;80.28;97858.59;5088235;23;20570;-91
2023/09/12 07:45:36;;;;;;;11.53;9.10;;;;;;;25.44;76.94;97856.97;5090124;23;20598;-91
2023/09/12 07:47:40;;;;;;;14.30;9.20;;;;;;;25.57;77.22;97853.50;5090051;23;20882;-89
2023/09/12 07:49:44;;;;;;;12.60;9.50;;;;;;;25.84;78.27;97867.53;5065756;23;20599;-90
2023/09/12 07:51:47;;;;;;;15.10;10.20;;;;;;;25.98;78.96;97863.00;5064617;23;20997;-90
2023/09/12 07:53:50;;;;;;;12.57;9.03;;;;;;;26.28;78.63;97859.72;5087686;23;20590;-90
2023/09/12 07:55:54;;;;;;;10.47;8.80;;;;;;;26.56;76.33;97865.66;5115618;23;20581;-89
2023/09/12 07:57:56;;;;;;;12.07;8.63;;;;;;;26.68;76.16;97872.84;5088879;23;20579;-90
2023/09/12 08:00:00;;;;;;;10.10;8.60;;;;;;;26.79;74.79;97865.00;5088937;23;20580;-90
2023/09/12 08:02:04;;;;;;;10.63;8.37;;;;;;;26.80;74.52;97869.28;5064556;23;20583;-89
2023/09/12 08:04:08;;;;;;;9.50;8.23;;;;;;;27.07;75.06;97860.97;5113852;23;20970;-89
2023/09/12 08:06:13;;;;;;;10.33;9.00;;;;;;;27.24;74.54;97872.88;5087679;23;20583;-89
2023/09/12 08:08:16;;;;;;;10.40;8.37;;;;;;;27.40;75.39;97868.88;5089333;23;20672;-89
2023/09/12 08:10:19;;;;;;;13.50;9.23;;;;;;;27.54;74.68;97874.81;5087319;23;20589;-90
2023/09/12 08:12:23;;;;;;;10.23;9.13;;;;;;;27.75;73.86;97866.38;5088332;23;20972;-89
2023/09/12 08:14:27;;;;;;;12.47;9.50;;;;;;;27.89;73.55;97856.38;5064721;23;20696;-89
2023/09/12 08:16:31;;;;;;;10.03;8.20;;;;;;;28.02;72.25;97849.91;5065186;23;20589;-89
2023/09/12 08:18:35;;;;;;;11.17;8.40;;;;;;;28.11;73.13;97856.63;5063529;23;20586;-89
2023/09/12 08:20:39;;;;;;;11.30;8.40;;;;;;;28.27;71.93;97856.09;5063290;23;20650;-89
2023/09/12 08:22:42;;;;;;;9.90;8.90;;;;;;;28.14;71.49;97855.38;5113639;23;20600;-89
2023/09/12 08:24:45;;;;;;;10.80;8.20;;;;;;;28.24;71.59;97844.97;5062929;23;20630;-89
2023/09/12 08:26:49;;;;;;;8.87;7.97;;;;;;;28.38;71.64;97850.00;5087222;23;20621;-90
2023/09/12 08:28:52;;;;;;;12.90;9.70;;;;;;;28.39;71.00;97837.41;5087067;23;20591;-89
2023/09/12 08:30:55;;;;;;;10.23;9.07;;;;;;;28.46;70.05;97841.63;5063113;23;20584;-86
2023/09/12 08:32:58;;;;;;;11.53;9.60;;;;;;;28.52;71.90;97838.06;5113164;23;20582;-88
2023/09/12 08:35:03;;;;;;;13.70;10.40;;;;;;;28.43;70.24;97843.94;5113538;23;20597;-90
2023/09/12 08:37:06;;;;;;;12.50;8.10;;;;;;;28.44;70.38;97840.25;5061832;23;20595;-89
2023/09/12 08:39:15;;;;;;;9.70;8.70;;;;;;;28.67;71.39;97835.88;5086365;23;20618;-89
2023/09/12 08:41:18;;;;;;;14.43;9.23;;;;;;;28.79;71.57;97831.41;5113614;23;20613;-90
2023/09/12 08:43:21;;;;;;;15.93;11.00;;;;;;;28.98;71.63;97840.03;5085031;23;20938;-89
2023/09/12 08:45:25;;;;;;;9.97;8.40;;;;;;;29.13;71.83;97836.97;5088044;23;20733;-89
2023/09/12 08:47:28;;;;;;;10.63;9.53;;;;;;;29.22;69.28;97841.00;5114358;23;21145;-87
2023/09/12 08:49:33;;;;;;;13.43;9.70;;;;;;;29.32;71.91;97836.75;5087912;23;21155;-87
2023/09/12 08:51:39;;;;;;;11.10;9.20;;;;;;;29.23;70.66;97843.47;5063751;23;20592;-86
2023/09/12 08:53:42;;;;;;;10.60;9.43;;;;;;;29.16;71.25;97841.91;5062804;23;20608;-87
2023/09/12 08:55:46;;;;;;;13.10;10.00;;;;;;;29.16;71.74;97836.50;5062301;23;20675;-87
2023/09/12 08:57:51;;;;;;;12.50;9.67;;;;;;;29.31;70.85;97843.16;5087210;23;20583;-86
2023/09/12 08:59:55;;;;;;;11.03;9.93;;;;;;;29.41;68.76;97850.66;5113483;23;20602;-87
2023/09/12 09:01:58;;;;;;;11.50;9.50;;;;;;;29.42;70.27;97847.75;5086229;23;20960;-86
2023/09/12 09:04:03;;;;;;;15.00;9.50;;;;;;;29.45;68.11;97849.97;5088968;23;20985;-87
2023/09/12 09:06:07;;;;;;;11.80;10.40;;;;;;;29.18;68.07;97839.78;5064240;23;20585;-86
2023/09/12 09:08:13;;;;;;;10.87;9.77;;;;;;;29.08;68.50;97847.59;5088958;23;21199;-87
2023/09/12 09:10:17;;;;;;;11.47;9.77;;;;;;;28.94;69.08;97838.03;5115639;23;20556;-87
2023/09/12 09:12:28;;;;;;;11.60;10.07;;;;;;;28.77;70.54;97836.19;5063175;23;20587;-87
2023/09/12 09:14:31;;;;;;;12.20;10.20;;;;;;;28.64;69.59;97837.13;5113289;23;20580;-90
2023/09/12 09:16:35;;;;;;;13.63;10.90;;;;;;;28.73;71.12;97829.59;5085848;23;20589;-89
2023/09/12 09:18:50;;;;;;;12.17;9.57;;;;;;;28.74;70.69;97836.63;5062652;23;20582;-87
2023/09/12 09:20:54;;;;;;;12.40;10.10;;;;;;;28.88;70.97;97828.19;5064049;23;20589;-87
2023/09/12 09:27:10;;;;;;;12.03;10.57;;;;;;;29.07;70.01;97827.94;5108713;23;20560;-87
2023/09/12 09:33:36;;;;;;;14.00;10.63;;;;;;;28.94;70.32;97815.72;5113081;23;20538;-85
2023/09/12 09:35:40;;;;;;;12.43;10.27;;;;;;;29.09;72.50;97814.28;5087722;23;20579;-85
2023/09/12 09:37:43;;;;;;;10.50;9.40;;;;;;;29.28;73.07;97818.59;5086210;23;20724;-85
2023/09/12 09:39:51;;;;;;;11.03;9.93;;;;;;;29.46;70.80;97812.09;5087316;23;20720;-85
2023/09/12 09:41:56;;;;;;;12.23;10.37;;;;;;;29.62;72.75;97811.47;5086917;23;21108;-85
2023/09/12 09:44:01;;;;;;;11.10;10.00;;;;;;;29.78;71.86;97818.03;5088440;23;21109;-85
2023/09/12 09:46:04;;;;;;;11.10;9.97;;;;;;;29.92;70.72;97811.41;5112184;23;20644;-85
2023/09/12 09:48:08;;;;;;;12.40;10.33;;;;;;;30.01;68.87;97809.00;5086835;23;20618;-85
2023/09/12 09:50:15;;;;;;;11.37;10.17;;;;;;;29.99;68.73;97803.03;5064196;23;20708;-84
2023/09/12 09:52:26;;;;;;;11.60;10.40;;;;;;;30.03;68.17;97798.00;5086858;23;21190;-85
2023/09/12 09:54:29;;;;;;;11.53;10.33;;;;;;;30.16;72.23;97808.50;5113017;23;20601;-87